weather.gov     
National Weather Service

Terminal Aerodrome Forecast
NWS Homepage
This page is being discontinued on March 12, 2014.
The same data is available at this site. Please update your bookmarks.
Thank you, and we apologize for the inconvenience.
Please send an email to SR-SRH.Webmaster@noaa.gov with any concerns.


Current Version
Previous Version:    01  02  03  04  05  06  07  08  09  10  11  12  13  14  15  16  17  18  19  20  21  22  23  24  25  26  27  28  29  30  
   31  32  33  34  35  36  37  38  39  40  41  
[Printable]
266
FTUS41 KBOX 231738
TAFBDL
TAF
KBDL 231738Z 2318/2424 19007KT P6SM SCT100 BKN150
     FM240200 VRB03KT P6SM BKN100
     FM240600 00000KT P6SM BKN020
     FM240900 12005KT 3SM RA OVC015 WS020/16035KT
     FM241100 11009KT 2SM +RA OVC010 WS020/15040KT
     FM241300 13010G21KT 2SM +RA OVC008
     FM241600 18008KT P6SM OVC008=




266
FTUS41 KBOX 231738
TAFBDL
TAF
KBDL 231738Z 2318/2424 19007KT P6SM SCT100 BKN150
     FM240200 VRB03KT P6SM BKN100
     FM240600 00000KT P6SM BKN020
     FM240900 12005KT 3SM RA OVC015 WS020/16035KT
     FM241100 11009KT 2SM +RA OVC010 WS020/15040KT
     FM241300 13010G21KT 2SM +RA OVC008
     FM241600 18008KT P6SM OVC008=


U.S. Dept. of Commerce
NOAA National Weather Service
1325 East West Highway
Silver Spring, MD 20910
E-mail: w-nws.webmaster@noaa.gov
Page last modified: May 16, 2007
NATIONAL WEATHER SERVICE: for Safety, for Work, for Fun - FOR LIFE